createdAt,value
2018-02-01T00:01:00.643Z,2.73
2018-02-01T00:03:28.917Z,4.33
2018-02-01T00:05:57.217Z,2.50
2018-02-01T00:08:24.733Z,2.00
2018-02-01T00:10:52.261Z,2.07
2018-02-01T00:13:19.783Z,1.90
2018-02-01T00:15:47.312Z,6.00
2018-02-01T00:18:14.825Z,2.50
2018-02-01T00:20:42.364Z,2.10
2018-02-01T00:23:09.888Z,1.87
2018-02-01T00:25:38.192Z,4.23
2018-02-01T00:28:05.716Z,2.67
2018-02-01T00:30:33.249Z,1.63
2018-02-01T00:33:00.765Z,1.73
2018-02-01T00:35:28.313Z,1.10
2018-02-01T00:37:56.593Z,2.83
2018-02-01T00:40:24.104Z,2.00
2018-02-01T00:42:51.646Z,0.87
2018-02-01T00:45:19.170Z,0.87
2018-02-01T00:47:46.708Z,1.13
2018-02-01T00:50:14.997Z,0.80
2018-02-01T00:52:42.537Z,0.70
2018-02-01T00:55:10.811Z,2.07
2018-02-01T00:57:38.348Z,0.57
2018-02-01T01:00:05.861Z,1.13
2018-02-01T01:02:33.392Z,0.80
2018-02-01T01:05:01.672Z,0.90
2018-02-01T01:07:29.965Z,0.97
2018-02-01T01:09:57.485Z,1.07
2018-02-01T01:12:25.025Z,0.43
2018-02-01T01:14:52.537Z,0.40
2018-02-01T01:17:20.078Z,0.70
2018-02-01T01:19:48.352Z,0.40
2018-02-01T01:22:16.652Z,1.10
2018-02-01T01:24:44.180Z,0.77
2018-02-01T01:27:12.493Z,0.63
2018-02-01T01:29:40.014Z,1.20
2018-02-01T01:32:07.552Z,0.73
2018-02-01T01:34:35.060Z,0.47
2018-02-01T01:37:02.588Z,0.80
2018-02-01T01:39:30.863Z,1.13
2018-02-01T01:41:58.398Z,0.80
2018-02-01T01:44:25.925Z,0.47
2018-02-01T01:46:53.452Z,1.80
2018-02-01T01:49:21.719Z,0.80
2018-02-01T01:51:50.019Z,0.97
2018-02-01T01:54:17.531Z,1.00
2018-02-01T01:56:45.064Z,0.77
2018-02-01T01:59:12.571Z,0.73
2018-02-01T02:01:40.864Z,0.80
2018-02-01T02:04:08.371Z,0.83
2018-02-01T02:06:36.693Z,0.67
2018-02-01T02:09:04.207Z,1.97
2018-02-01T02:11:31.731Z,1.27
2018-02-01T02:14:00.013Z,0.70
2018-02-01T02:16:27.565Z,1.20
2018-02-01T02:18:55.072Z,1.40
2018-02-01T02:21:22.603Z,0.93
2018-02-01T02:23:50.129Z,0.73
2018-02-01T02:26:17.680Z,0.60
2018-02-01T02:28:45.199Z,0.80
2018-02-01T02:31:12.713Z,2.47
2018-02-01T02:33:41.021Z,1.07
2018-02-01T02:36:08.533Z,1.13
2018-02-01T02:38:36.075Z,0.70
2018-02-01T02:41:03.595Z,0.83
2018-02-01T02:43:31.132Z,0.80
2018-02-01T02:45:58.661Z,0.77
2018-02-01T02:48:26.210Z,0.23
2018-02-01T02:50:53.730Z,0.57
2018-02-01T02:53:21.268Z,0.37
2018-02-01T02:55:48.785Z,0.93
2018-02-01T02:58:17.080Z,1.10
2018-02-01T03:00:44.602Z,0.60
2018-02-01T03:03:12.899Z,0.57
2018-02-01T03:05:40.449Z,0.40
2018-02-01T03:08:07.979Z,0.63
2018-02-01T03:10:35.488Z,0.20
2018-02-01T03:13:03.028Z,0.20
2018-02-01T03:15:31.308Z,0.47
2018-02-01T03:17:58.850Z,0.10
2018-02-01T03:20:26.359Z,0.53
2018-02-01T03:22:53.889Z,1.30
2018-02-01T03:25:21.411Z,0.30
2018-02-01T03:27:48.940Z,0.73
2018-02-01T03:30:16.481Z,0.30
2018-02-01T03:32:43.993Z,1.60
2018-02-01T03:35:12.292Z,1.50
2018-02-01T03:37:39.806Z,0.97
2018-02-01T03:40:07.354Z,0.60
2018-02-01T03:42:34.873Z,0.30
2018-02-01T03:45:02.414Z,0.20
2018-02-01T03:47:30.704Z,0.77
2018-02-01T03:49:58.271Z,0.23
2018-02-01T03:52:25.772Z,0.87
2018-02-01T03:54:53.291Z,0.60
2018-02-01T03:57:20.828Z,0.10
2018-02-01T03:59:48.335Z,0.10
2018-02-01T04:02:15.867Z,0.20
2018-02-01T04:04:43.381Z,0.20
2018-02-01T04:07:11.676Z,0.23
2018-02-01T04:09:39.951Z,0.17
2018-02-01T04:12:07.475Z,0.20
2018-02-01T04:14:34.980Z,0.20
2018-02-01T04:17:02.528Z,0.07
2018-02-01T04:19:30.052Z,0.40
2018-02-01T04:21:57.584Z,0.10
2018-02-01T04:24:25.104Z,0.20
2018-02-01T04:26:52.636Z,0.20
2018-02-01T04:29:20.907Z,0.20
2018-02-01T04:31:48.438Z,0.10
2018-02-01T04:34:15.961Z,0.97
2018-02-01T04:36:43.513Z,0.10
2018-02-01T04:39:11.018Z,0.30
2018-02-01T04:41:38.543Z,2.63
2018-02-01T04:44:06.090Z,0.30
2018-02-01T04:46:33.591Z,0.03
2018-02-01T04:49:01.123Z,0.60
2018-02-01T04:51:28.642Z,0.10
2018-02-01T04:53:56.935Z,0.10
2018-02-01T04:56:24.448Z,0.13
2018-02-01T04:58:51.985Z,0.70
2018-02-01T05:01:19.509Z,0.00
2018-02-01T05:03:47.041Z,0.20
2018-02-01T05:06:15.324Z,0.40
2018-02-01T05:08:43.651Z,0.30
2018-02-01T05:11:11.161Z,1.40
2018-02-01T05:13:39.491Z,0.30
2018-02-01T05:16:07.007Z,0.20
2018-02-01T05:18:34.525Z,0.43
2018-02-01T05:21:02.052Z,0.20
2018-02-01T05:23:29.570Z,1.20
2018-02-01T05:25:57.100Z,0.67
2018-02-01T05:28:24.603Z,1.33
2018-02-01T05:30:52.135Z,1.70
2018-02-01T05:33:20.425Z,0.23
2018-02-01T05:35:48.726Z,1.27
2018-02-01T05:38:16.241Z,0.20
2018-02-01T05:40:43.817Z,0.20
2018-02-01T05:43:12.105Z,0.20
2018-02-01T05:45:39.645Z,0.93
2018-02-01T05:48:07.912Z,0.30
2018-02-01T05:50:36.222Z,0.37
2018-02-01T05:53:03.756Z,0.50
2018-02-01T05:55:32.097Z,0.23
2018-02-01T05:57:59.644Z,0.20
2018-02-01T06:00:27.177Z,0.10
2018-02-01T06:02:54.688Z,2.30
2018-02-01T06:05:22.220Z,0.17
2018-02-01T06:07:49.741Z,0.20
2018-02-01T06:10:17.288Z,1.00
2018-02-01T06:12:45.559Z,0.47
2018-02-01T06:15:13.836Z,2.63
2018-02-01T06:17:42.142Z,1.83
2018-02-01T06:20:09.665Z,0.30
2018-02-01T06:22:37.974Z,2.00
2018-02-01T06:25:05.492Z,0.80
2018-02-01T06:27:33.807Z,1.87
2018-02-01T06:30:01.349Z,1.20
2018-02-01T06:32:28.886Z,0.40
2018-02-01T06:34:57.174Z,0.57
2018-02-01T06:37:25.482Z,0.70
2018-02-01T06:39:53.004Z,1.63
2018-02-01T06:42:20.572Z,1.93
2018-02-01T06:44:48.087Z,1.50
2018-02-01T06:47:15.632Z,1.43
2018-02-01T06:49:43.151Z,0.73
2018-02-01T06:52:10.691Z,0.50
2018-02-01T06:54:38.980Z,1.13
2018-02-01T06:57:07.305Z,0.47
2018-02-01T06:59:34.818Z,1.10
2018-02-01T07:02:02.346Z,2.03
2018-02-01T07:04:30.676Z,4.37
2018-02-01T07:06:58.184Z,1.20
2018-02-01T07:09:26.496Z,1.00
2018-02-01T07:11:54.006Z,0.30
2018-02-01T07:14:21.541Z,2.33
2018-02-01T07:16:49.069Z,0.77
2018-02-01T07:19:16.594Z,0.53
2018-02-01T07:21:44.099Z,1.20
2018-02-01T07:24:11.650Z,1.13
2018-02-01T07:26:39.163Z,0.30
2018-02-01T07:29:07.472Z,0.20
2018-02-01T07:31:35.003Z,0.50
2018-02-01T07:34:03.307Z,1.20
2018-02-01T07:36:30.824Z,0.30
2018-02-01T07:38:58.374Z,0.87
2018-02-01T07:41:25.928Z,1.13
2018-02-01T07:43:53.435Z,1.37
2018-02-01T07:46:23.767Z,0.40
2018-02-01T07:48:51.283Z,1.23
2018-02-01T07:51:18.833Z,0.73
2018-02-01T07:53:46.349Z,2.20
2018-02-01T07:56:13.883Z,0.40
2018-02-01T07:58:42.161Z,7.80
2018-02-01T08:01:09.691Z,1.57
2018-02-01T08:03:37.209Z,0.53
2018-02-01T08:06:04.749Z,1.17
2018-02-01T08:08:32.271Z,1.17
2018-02-01T08:11:00.585Z,1.10
2018-02-01T08:13:28.100Z,0.67
2018-02-01T08:15:55.645Z,2.23
2018-02-01T08:18:23.156Z,1.90
2018-02-01T08:20:50.663Z,1.70
2018-02-01T08:23:18.200Z,1.67
2018-02-01T08:25:45.707Z,2.80
2018-02-01T08:28:14.017Z,0.93
2018-02-01T08:30:41.529Z,0.97
2018-02-01T08:33:09.062Z,1.30
2018-02-01T08:35:36.589Z,1.53
2018-02-01T08:38:04.130Z,3.20
2018-02-01T08:40:31.636Z,4.00
2018-02-01T08:42:59.175Z,1.90
2018-02-01T08:45:26.691Z,4.53
2018-02-01T08:47:54.993Z,2.27
2018-02-01T08:50:22.504Z,2.23
2018-02-01T08:52:50.046Z,5.07
2018-02-01T08:55:17.572Z,1.67
2018-02-01T08:57:45.108Z,1.97
2018-02-01T09:00:12.623Z,5.83
2018-02-01T09:02:40.155Z,3.50
2018-02-01T09:05:07.678Z,1.57
2018-02-01T09:07:35.220Z,2.50
2018-02-01T09:10:03.518Z,1.50
2018-02-01T09:12:31.040Z,2.33
2018-02-01T09:14:58.572Z,1.50
2018-02-01T09:17:26.088Z,1.87
2018-02-01T09:19:53.628Z,1.10
2018-02-01T09:22:21.917Z,0.77
2018-02-01T09:24:50.241Z,2.30
2018-02-01T09:27:17.751Z,0.90
2018-02-01T09:29:46.039Z,1.10
2018-02-01T09:32:13.563Z,2.70
2018-02-01T09:34:41.108Z,1.10
2018-02-01T09:37:08.630Z,1.40
2018-02-01T09:39:36.165Z,1.70
2018-02-01T09:42:03.705Z,1.60
2018-02-01T09:44:32.013Z,1.53
2018-02-01T09:46:59.523Z,3.40
2018-02-01T09:49:27.060Z,1.23
2018-02-01T09:51:54.577Z,0.87
2018-02-01T09:54:22.116Z,0.80
2018-02-01T09:56:50.406Z,0.97
2018-02-01T09:59:17.948Z,0.57
2018-02-01T10:01:46.232Z,0.77
2018-02-01T10:04:14.515Z,0.67
2018-02-01T10:06:42.817Z,0.87
2018-02-01T10:09:10.339Z,0.93
2018-02-01T10:11:38.640Z,0.70
2018-02-01T10:14:06.146Z,0.83
2018-02-01T10:16:33.679Z,0.97
2018-02-01T10:19:01.191Z,0.77
2018-02-01T10:21:29.509Z,1.17
2018-02-01T10:23:57.042Z,1.30
2018-02-01T10:26:24.603Z,3.13
2018-02-01T10:28:52.117Z,1.07
2018-02-01T10:31:19.717Z,1.07
2018-02-01T10:33:47.330Z,1.13
2018-02-01T10:36:14.894Z,2.13
2018-02-01T10:38:42.400Z,1.30
2018-02-01T10:41:09.933Z,1.43
2018-02-01T10:43:38.221Z,0.70
2018-02-01T10:46:05.765Z,2.40
2018-02-01T10:48:34.037Z,2.10
2018-02-01T10:51:02.340Z,1.23
2018-02-01T10:53:29.858Z,1.40
2018-02-01T10:55:57.374Z,3.50
2018-02-01T10:58:24.912Z,1.70
2018-02-01T11:00:52.443Z,2.93
2018-02-01T11:03:20.853Z,2.27
2018-02-01T11:05:48.375Z,1.30
2018-02-01T11:08:15.908Z,1.67
2018-02-01T11:10:43.423Z,1.83
2018-02-01T11:13:10.970Z,1.53
2018-02-01T11:15:39.257Z,2.00
2018-02-01T11:18:06.808Z,2.23
2018-02-01T11:20:34.328Z,1.97
2018-02-01T11:23:01.864Z,1.10
2018-02-01T11:25:29.426Z,2.17
2018-02-01T11:27:56.932Z,2.83
2018-02-01T11:30:25.212Z,2.00
2018-02-01T11:32:52.769Z,1.60
2018-02-01T11:35:21.057Z,1.33
2018-02-01T11:37:48.573Z,1.50
2018-02-01T11:40:16.118Z,1.80
2018-02-01T11:42:43.637Z,2.07
2018-02-01T11:45:11.179Z,1.70
2018-02-01T11:47:39.465Z,3.23
2018-02-01T11:50:06.999Z,2.67
2018-02-01T11:52:35.301Z,1.53
2018-02-01T11:55:02.831Z,2.47
2018-02-01T11:57:31.141Z,1.20
2018-02-01T11:59:58.690Z,3.43
2018-02-01T12:02:26.200Z,1.53
2018-02-01T12:04:53.753Z,1.23
2018-02-01T12:07:21.301Z,3.13
2018-02-01T12:09:48.821Z,3.67
2018-02-01T12:12:16.356Z,2.17
2018-02-01T12:14:44.648Z,1.90
2018-02-01T12:17:12.961Z,1.10
2018-02-01T12:19:40.497Z,2.07
2018-02-01T12:22:08.027Z,2.60
2018-02-01T12:24:36.308Z,1.47
2018-02-01T12:27:04.621Z,1.63
2018-02-01T12:29:32.137Z,1.73
2018-02-01T12:32:00.440Z,2.10
2018-02-01T12:34:27.960Z,1.93
2018-02-01T12:36:56.276Z,1.37
2018-02-01T12:39:23.823Z,2.87
2018-02-01T12:41:51.365Z,2.97
2018-02-01T12:44:19.643Z,1.90
2018-02-01T12:46:47.943Z,1.13
2018-02-01T12:49:15.480Z,1.53
2018-02-01T12:51:43.790Z,2.43
2018-02-01T12:54:11.312Z,1.83
2018-02-01T12:56:39.616Z,2.47
2018-02-01T12:59:07.136Z,1.93
2018-02-01T13:01:34.700Z,2.20
2018-02-01T13:04:02.984Z,1.60
2018-02-01T13:06:30.541Z,2.93
2018-02-01T13:08:58.831Z,2.00
2018-02-01T13:11:26.356Z,1.77
2018-02-01T13:13:53.894Z,1.83
2018-02-01T13:16:21.412Z,1.50
2018-02-01T13:18:48.953Z,1.70
2018-02-01T13:21:17.236Z,1.77
2018-02-01T13:23:44.779Z,2.03
2018-02-01T13:26:13.084Z,1.73
2018-02-01T13:28:40.654Z,2.20
2018-02-01T13:31:08.164Z,1.80
2018-02-01T13:33:36.469Z,2.80
2018-02-01T13:36:03.984Z,1.40
2018-02-01T13:38:31.524Z,2.53
2018-02-01T13:40:59.040Z,1.60
2018-02-01T13:43:26.581Z,1.70
2018-02-01T13:45:54.868Z,3.20
2018-02-01T13:48:23.181Z,2.10
2018-02-01T13:50:50.705Z,1.70
2018-02-01T13:53:18.264Z,3.40
2018-02-01T13:55:45.780Z,2.20
2018-02-01T13:58:13.316Z,1.93
2018-02-01T14:00:40.840Z,3.80
2018-02-01T14:03:08.355Z,3.47
2018-02-01T14:05:35.893Z,2.00
2018-02-01T14:08:03.473Z,3.07
2018-02-01T14:10:31.003Z,2.00
2018-02-01T14:12:58.524Z,4.27
2018-02-01T14:15:26.824Z,2.10
2018-02-01T14:17:54.332Z,2.50
2018-02-01T14:20:21.868Z,4.03
2018-02-01T14:22:49.412Z,1.20
2018-02-01T14:25:16.968Z,1.37
2018-02-01T14:27:44.492Z,1.87
2018-02-01T14:30:12.824Z,1.47
2018-02-01T14:32:40.336Z,1.83
2018-02-01T14:35:08.711Z,2.03
2018-02-01T14:37:36.212Z,2.13
2018-02-01T14:40:03.752Z,1.97
2018-02-01T14:42:31.269Z,2.27
2018-02-01T14:44:58.779Z,5.67
2018-02-01T14:47:26.312Z,3.27
2018-02-01T14:49:53.830Z,3.03
2018-02-01T14:52:21.368Z,3.53
2018-02-01T14:54:48.880Z,3.07
2018-02-01T14:57:16.415Z,3.27
2018-02-01T14:59:44.700Z,3.80
2018-02-01T15:02:12.232Z,2.40
2018-02-01T15:04:39.752Z,2.27
2018-02-01T15:07:07.284Z,3.20
2018-02-01T15:09:34.802Z,4.33
2018-02-01T15:12:02.333Z,3.20
2018-02-01T15:14:29.853Z,3.43
2018-02-01T15:16:57.384Z,3.87
2018-02-01T15:19:24.996Z,2.43
2018-02-01T15:21:52.589Z,2.90
2018-02-01T15:24:20.113Z,5.00
2018-02-01T15:26:47.640Z,4.20
2018-02-01T15:29:15.943Z,5.20
2018-02-01T15:31:43.465Z,4.03
2018-02-01T15:34:11.768Z,2.73
2018-02-01T15:36:39.305Z,5.50
2018-02-01T15:39:07.628Z,3.23
2018-02-01T15:41:35.162Z,3.63
2018-02-01T15:44:02.752Z,3.30
2018-02-01T15:46:30.308Z,6.13
2018-02-01T15:48:57.848Z,3.33
2018-02-01T15:51:25.385Z,3.33
2018-02-01T15:53:52.978Z,2.23
2018-02-01T15:56:20.486Z,3.33
2018-02-01T15:58:48.811Z,3.43
2018-02-01T16:01:16.350Z,3.17
2018-02-01T16:03:43.917Z,5.73
2018-02-01T16:06:11.456Z,5.07
2018-02-01T16:08:38.967Z,5.07
2018-02-01T16:11:06.504Z,5.40
2018-02-01T16:13:35.631Z,3.73
2018-02-01T16:16:03.211Z,4.37
2018-02-01T16:18:31.487Z,4.70
2018-02-01T16:20:59.989Z,3.30
2018-02-01T16:23:28.295Z,5.53
2018-02-01T16:25:55.836Z,3.53
2018-02-01T16:28:23.349Z,5.23
2018-02-01T16:30:51.772Z,3.20
2018-02-01T16:33:19.325Z,3.30
2018-02-01T16:35:46.869Z,5.93
2018-02-01T16:38:14.383Z,3.03
2018-02-01T16:40:42.152Z,4.03
2018-02-01T16:43:09.676Z,4.83
2018-02-01T16:45:37.219Z,8.20
2018-02-01T16:48:04.743Z,4.13
2018-02-01T16:50:33.055Z,3.37
2018-02-01T16:53:00.586Z,5.23
2018-02-01T16:55:28.859Z,5.70
2018-02-01T16:57:57.160Z,7.13
2018-02-01T17:00:25.477Z,8.13
2018-02-01T17:02:52.991Z,6.87
2018-02-01T17:05:20.504Z,4.00
2018-02-01T17:07:48.041Z,7.33
2018-02-01T17:10:15.557Z,5.23
2018-02-01T17:12:43.912Z,4.63
2018-02-01T17:15:12.179Z,5.93
2018-02-01T17:17:39.717Z,8.13
2018-02-01T17:20:07.228Z,6.60
2018-02-01T17:22:34.768Z,4.77
2018-02-01T17:25:03.121Z,6.83
2018-02-01T17:27:33.217Z,6.37
2018-02-01T17:30:00.728Z,5.00
2018-02-01T17:32:29.039Z,6.43
2018-02-01T17:34:56.548Z,7.87
2018-02-01T17:37:24.840Z,7.37
2018-02-01T17:39:53.145Z,6.20
2018-02-01T17:42:20.667Z,4.77
2018-02-01T17:44:48.975Z,10.53
2018-02-01T17:47:16.501Z,5.60
2018-02-01T17:49:44.805Z,5.20
2018-02-01T17:52:12.318Z,6.80
2018-02-01T17:54:39.856Z,6.20
2018-02-01T17:57:07.371Z,5.87
2018-02-01T17:59:34.921Z,7.43
2018-02-01T18:02:02.448Z,6.47
2018-02-01T18:04:29.993Z,7.97
2018-02-01T18:06:57.500Z,8.13
2018-02-01T18:09:25.040Z,8.03
2018-02-01T18:11:52.569Z,5.93
2018-02-01T18:14:20.100Z,7.70
2018-02-01T18:16:47.610Z,7.27
2018-02-01T18:19:16.709Z,7.47
2018-02-01T18:21:44.304Z,8.07
2018-02-01T18:24:11.832Z,11.07
2018-02-01T18:26:40.181Z,6.27
2018-02-01T18:29:07.716Z,8.27
2018-02-01T18:31:35.235Z,6.93
2018-02-01T18:34:02.795Z,10.47
2018-02-01T18:36:30.311Z,5.77
2018-02-01T18:38:57.845Z,6.43
2018-02-01T18:41:25.396Z,7.83
2018-02-01T18:43:52.945Z,9.10
2018-02-01T18:46:20.463Z,6.93
2018-02-01T18:48:48.760Z,9.17
2018-02-01T18:51:16.275Z,6.93
2018-02-01T18:53:43.828Z,11.03
2018-02-01T18:56:11.387Z,7.80
2018-02-01T18:58:39.715Z,8.20
2018-02-01T19:01:08.059Z,7.77
2018-02-01T19:03:35.591Z,9.30
2018-02-01T19:06:03.109Z,10.97
2018-02-01T19:08:30.657Z,7.73
2018-02-01T19:10:58.985Z,8.13
2018-02-01T19:13:26.621Z,8.57
2018-02-01T19:15:54.257Z,10.63
2018-02-01T19:18:21.949Z,9.00
2018-02-01T19:20:49.532Z,7.07
2018-02-01T19:23:17.036Z,7.30
2018-02-01T19:25:45.386Z,10.30
2018-02-01T19:28:12.953Z,8.50
2018-02-01T19:30:41.247Z,8.00
2018-02-01T19:33:08.760Z,6.47
2018-02-01T19:35:36.301Z,6.93
2018-02-01T19:38:03.863Z,7.30
2018-02-01T19:40:31.408Z,6.77
2018-02-01T19:42:58.978Z,9.43
2018-02-01T19:45:26.511Z,5.53
2018-02-01T19:47:54.110Z,5.70
2018-02-01T19:50:21.691Z,8.17
2018-02-01T19:52:49.259Z,8.40
2018-02-01T19:55:17.569Z,8.67
2018-02-01T19:57:45.138Z,10.53
2018-02-01T20:00:12.901Z,7.30
2018-02-01T20:02:40.416Z,7.10
2018-02-01T20:05:08.745Z,11.43
2018-02-01T20:07:36.406Z,21.10
2018-02-01T20:10:04.674Z,9.83
2018-02-01T20:12:32.572Z,6.63
2018-02-01T20:15:00.126Z,7.93
2018-02-01T20:17:27.671Z,10.37
2018-02-01T20:19:55.189Z,8.30
2018-02-01T20:22:23.485Z,9.50
2018-02-01T20:24:51.058Z,6.97
2018-02-01T20:27:18.615Z,7.53
2018-02-01T20:29:46.183Z,7.43
2018-02-01T20:32:13.720Z,10.13
2018-02-01T20:34:41.284Z,8.20
2018-02-01T20:37:08.889Z,11.10
2018-02-01T20:39:37.245Z,10.33
2018-02-01T20:42:04.798Z,10.53
2018-02-01T20:44:32.412Z,10.70
2018-02-01T20:46:59.981Z,8.77
2018-02-01T20:49:27.505Z,8.70
2018-02-01T20:51:55.872Z,8.37
2018-02-01T20:54:23.413Z,7.20
2018-02-01T20:56:50.969Z,10.90
2018-02-01T20:59:18.616Z,10.43
2018-02-01T21:01:46.235Z,9.33
2018-02-01T21:04:13.827Z,12.00
2018-02-01T21:06:41.412Z,9.57
2018-02-01T21:09:09.043Z,7.57
2018-02-01T21:11:36.585Z,6.93
2018-02-01T21:14:04.203Z,6.97
2018-02-01T21:16:31.753Z,6.87
2018-02-01T21:18:59.338Z,7.07
2018-02-01T21:21:27.671Z,6.33
2018-02-01T21:23:55.277Z,5.70
2018-02-01T21:26:27.753Z,7.73
2018-02-01T21:28:56.074Z,4.37
2018-02-01T21:31:23.588Z,3.13
2018-02-01T21:33:51.864Z,5.00
2018-02-01T21:36:20.234Z,3.43
2018-02-01T21:38:47.802Z,5.30
2018-02-01T21:41:16.104Z,5.67
2018-02-01T21:43:43.678Z,5.47
2018-02-01T21:46:11.231Z,4.07
2018-02-01T21:48:38.748Z,5.23
2018-02-01T21:51:07.061Z,3.77
2018-02-01T21:53:34.649Z,4.30
2018-02-01T21:56:02.182Z,4.53
2018-02-01T21:58:30.482Z,7.20
2018-02-01T22:00:58.023Z,5.13
2018-02-01T22:03:25.634Z,5.03
2018-02-01T22:05:53.932Z,5.50
2018-02-01T22:08:21.509Z,5.90
2018-02-01T22:10:49.070Z,4.57
2018-02-01T22:13:16.659Z,6.37
2018-02-01T22:15:44.181Z,3.73
2018-02-01T22:18:11.732Z,3.80
2018-02-01T22:20:39.281Z,5.63
2018-02-01T22:23:06.833Z,5.57
2018-02-01T22:25:35.179Z,3.80
2018-02-01T22:28:02.762Z,3.20
2018-02-01T22:30:31.111Z,5.33
2018-02-01T22:32:58.661Z,8.03
2018-02-01T22:35:27.000Z,5.33
2018-02-01T22:37:54.572Z,5.20
2018-02-01T22:40:22.199Z,5.43
2018-02-01T22:42:50.500Z,4.07
2018-02-01T22:45:18.048Z,5.10
2018-02-01T22:47:45.654Z,7.67
2018-02-01T22:50:13.214Z,7.10
2018-02-01T22:52:40.775Z,7.63
2018-02-01T22:55:08.353Z,7.37
2018-02-01T22:57:36.666Z,6.37
2018-02-01T23:00:04.238Z,7.30
2018-02-01T23:02:31.791Z,5.13
2018-02-01T23:04:59.427Z,5.67
2018-02-01T23:07:27.740Z,4.67
2018-02-01T23:09:55.306Z,6.43
2018-02-01T23:12:22.900Z,5.17
2018-02-01T23:14:50.492Z,8.50
2018-02-01T23:17:18.073Z,6.03
2018-02-01T23:19:45.648Z,6.07
2018-02-01T23:22:13.197Z,5.20
2018-02-01T23:24:40.764Z,7.30
2018-02-01T23:27:08.322Z,8.87
2018-02-01T23:29:35.870Z,6.33
2018-02-01T23:32:03.435Z,6.33
2018-02-01T23:34:30.981Z,7.80
2018-02-01T23:36:58.559Z,7.40
2018-02-01T23:39:26.107Z,7.33
2018-02-01T23:41:53.665Z,5.50
2018-02-01T23:44:21.230Z,5.50
2018-02-01T23:46:48.769Z,8.37
2018-02-01T23:49:16.304Z,8.87
2018-02-01T23:51:43.884Z,6.77
2018-02-01T23:54:11.461Z,6.27
2018-02-01T23:56:39.027Z,4.53
2018-02-01T23:59:06.615Z,8.37
